sensor_id;sensor_type;location;lat;lon;timestamp;pressure;altitude;pressure_sealevel;temperature;humidity
24825;BME280;12910;57.690;11.974;2022-11-27T00:01:24;101983.75;;;6.02;100.00
24825;BME280;12910;57.690;11.974;2022-11-27T00:03:50;101979.38;;;5.99;100.00
24825;BME280;12910;57.690;11.974;2022-11-27T00:06:19;101983.56;;;5.99;100.00
24825;BME280;12910;57.690;11.974;2022-11-27T00:08:45;101986.00;;;5.97;100.00
24825;BME280;12910;57.690;11.974;2022-11-27T00:11:17;101995.41;;;5.98;100.00
24825;BME280;12910;57.690;11.974;2022-11-27T00:13:42;101998.84;;;5.99;100.00
24825;BME280;12910;57.690;11.974;2022-11-27T00:16:08;101993.56;;;5.96;100.00
24825;BME280;12910;57.690;11.974;2022-11-27T00:18:34;101986.63;;;5.93;100.00
24825;BME280;12910;57.690;11.974;2022-11-27T00:21:05;101979.88;;;5.93;100.00
24825;BME280;12910;57.690;11.974;2022-11-27T00:23:32;101964.59;;;5.93;100.00
24825;BME280;12910;57.690;11.974;2022-11-27T00:25:58;101982.66;;;5.98;100.00
24825;BME280;12910;57.690;11.974;2022-11-27T00:28:23;101989.38;;;5.96;100.00
24825;BME280;12910;57.690;11.974;2022-11-27T00:30:49;101981.81;;;5.98;100.00
24825;BME280;12910;57.690;11.974;2022-11-27T00:33:14;101983.31;;;5.94;100.00
24825;BME280;12910;57.690;11.974;2022-11-27T00:35:40;101993.84;;;6.00;100.00
24825;BME280;12910;57.690;11.974;2022-11-27T00:38:05;101973.84;;;5.91;100.00
24825;BME280;12910;57.690;11.974;2022-11-27T00:40:31;101991.31;;;6.00;100.00
24825;BME280;12910;57.690;11.974;2022-11-27T00:42:56;101984.28;;;5.96;100.00
24825;BME280;12910;57.690;11.974;2022-11-27T00:45:21;101998.84;;;5.99;100.00
24825;BME280;12910;57.690;11.974;2022-11-27T00:47:47;102002.88;;;5.95;100.00
24825;BME280;12910;57.690;11.974;2022-11-27T00:50:12;101997.19;;;5.99;100.00
24825;BME280;12910;57.690;11.974;2022-11-27T00:52:38;101987.69;;;5.97;100.00
24825;BME280;12910;57.690;11.974;2022-11-27T00:55:03;101990.22;;;5.97;100.00
24825;BME280;12910;57.690;11.974;2022-11-27T00:57:29;101990.22;;;5.97;100.00
24825;BME280;12910;57.690;11.974;2022-11-27T00:59:54;101984.94;;;5.93;100.00
24825;BME280;12910;57.690;11.974;2022-11-27T01:02:20;101969.16;;;5.84;100.00
24825;BME280;12910;57.690;11.974;2022-11-27T01:04:46;101989.44;;;5.98;100.00
24825;BME280;12910;57.690;11.974;2022-11-27T01:07:12;101986.81;;;5.96;100.00
24825;BME280;12910;57.690;11.974;2022-11-27T01:09:38;101979.88;;;5.93;100.00
24825;BME280;12910;57.690;11.974;2022-11-27T01:12:03;101984.28;;;5.96;100.00
24825;BME280;12910;57.690;11.974;2022-11-27T01:14:29;101974.00;;;5.95;100.00
24825;BME280;12910;57.690;11.974;2022-11-27T01:16:54;101971.88;;;5.87;100.00
24825;BME280;12910;57.690;11.974;2022-11-27T01:19:20;101976.63;;;5.96;100.00
24825;BME280;12910;57.690;11.974;2022-11-27T01:21:46;101982.53;;;5.95;100.00
24825;BME280;12910;57.690;11.974;2022-11-27T01:24:13;101985.13;;;5.97;100.00
24825;BME280;12910;57.690;11.974;2022-11-27T01:26:39;101980.84;;;5.96;100.00
24825;BME280;12910;57.690;11.974;2022-11-27T01:29:05;101968.91;;;5.95;100.00
24825;BME280;12910;57.690;11.974;2022-11-27T01:31:31;101969.69;;;5.93;100.00
24825;BME280;12910;57.690;11.974;2022-11-27T01:33:59;101974.00;;;5.95;100.00
24825;BME280;12910;57.690;11.974;2022-11-27T01:36:26;101973.00;;;5.92;100.00
24825;BME280;12910;57.690;11.974;2022-11-27T01:38:51;101962.94;;;5.94;100.00
24825;BME280;12910;57.690;11.974;2022-11-27T01:41:34;101952.50;;;5.89;100.00
24825;BME280;12910;57.690;11.974;2022-11-27T01:47:08;101946.63;;;5.90;100.00
24825;BME280;12910;57.690;11.974;2022-11-27T01:49:48;101937.25;;;5.89;100.00
24825;BME280;12910;57.690;11.974;2022-11-27T01:52:21;101935.38;;;5.87;100.00
24825;BME280;12910;57.690;11.974;2022-11-27T01:55:04;101930.22;;;5.85;100.00
24825;BME280;12910;57.690;11.974;2022-11-27T01:57:51;101923.53;;;5.87;100.00
24825;BME280;12910;57.690;11.974;2022-11-27T02:00:19;101930.38;;;5.88;100.00
24825;BME280;12910;57.690;11.974;2022-11-27T02:02:45;101933.13;;;5.91;100.00
24825;BME280;12910;57.690;11.974;2022-11-27T02:05:16;101919.25;;;5.86;100.00
24825;BME280;12910;57.690;11.974;2022-11-27T02:07:42;101908.09;;;5.84;100.00
24825;BME280;12910;57.690;11.974;2022-11-27T02:10:08;101905.53;;;5.84;100.00
24825;BME280;12910;57.690;11.974;2022-11-27T02:26:06;101865.00;;;5.87;100.00
24825;BME280;12910;57.690;11.974;2022-11-27T02:28:56;101868.34;;;5.86;100.00
24825;BME280;12910;57.690;11.974;2022-11-27T02:34:37;101889.50;;;5.85;100.00
24825;BME280;12910;57.690;11.974;2022-11-27T02:37:12;101888.63;;;5.85;100.00
24825;BME280;12910;57.690;11.974;2022-11-27T02:39:54;101877.66;;;5.86;100.00
24825;BME280;12910;57.690;11.974;2022-11-27T02:42:22;101852.50;;;5.75;100.00
24825;BME280;12910;57.690;11.974;2022-11-27T02:44:56;101862.13;;;5.81;100.00
24825;BME280;12910;57.690;11.974;2022-11-27T02:47:25;101858.53;;;5.77;100.00
24825;BME280;12910;57.690;11.974;2022-11-27T02:49:52;101856.88;;;5.78;100.00
24825;BME280;12910;57.690;11.974;2022-11-27T02:52:23;101858.44;;;5.76;100.00
24825;BME280;12910;57.690;11.974;2022-11-27T02:54:53;101854.00;;;5.72;100.00
24825;BME280;12910;57.690;11.974;2022-11-27T02:57:22;101868.63;;;5.76;100.00
24825;BME280;12910;57.690;11.974;2022-11-27T02:59:50;101861.00;;;5.76;100.00
24825;BME280;12910;57.690;11.974;2022-11-27T03:02:43;101858.28;;;5.73;100.00
24825;BME280;12910;57.690;11.974;2022-11-27T03:05:09;101861.97;;;5.78;100.00
24825;BME280;12910;57.690;11.974;2022-11-27T03:08:04;101865.47;;;5.80;100.00
24825;BME280;12910;57.690;11.974;2022-11-27T03:13:01;101870.56;;;5.80;100.00
24825;BME280;12910;57.690;11.974;2022-11-27T03:15:39;101857.16;;;5.68;100.00
24825;BME280;12910;57.690;11.974;2022-11-27T03:18:31;101884.22;;;5.82;100.00
24825;BME280;12910;57.690;11.974;2022-11-27T03:21:10;101883.09;;;5.77;100.00
24825;BME280;12910;57.690;11.974;2022-11-27T03:23:40;101907.94;;;5.81;100.00
24825;BME280;12910;57.690;11.974;2022-11-27T03:26:05;101905.28;;;5.80;100.00
24825;BME280;12910;57.690;11.974;2022-11-27T03:28:31;101895.81;;;5.77;100.00
24825;BME280;12910;57.690;11.974;2022-11-27T03:30:58;101902.84;;;5.81;100.00
24825;BME280;12910;57.690;11.974;2022-11-27T03:33:23;101889.06;;;5.77;100.00
24825;BME280;12910;57.690;11.974;2022-11-27T03:35:49;101889.25;;;5.81;100.00
24825;BME280;12910;57.690;11.974;2022-11-27T03:38:14;101890.03;;;5.80;100.00
24825;BME280;12910;57.690;11.974;2022-11-27T03:41:06;101881.69;;;5.82;100.00
24825;BME280;12910;57.690;11.974;2022-11-27T03:43:41;101896.34;;;5.86;100.00
24825;BME280;12910;57.690;11.974;2022-11-27T03:46:27;101876.34;;;5.77;100.00
24825;BME280;12910;57.690;11.974;2022-11-27T03:49:21;101893.00;;;5.87;100.00
24825;BME280;12910;57.690;11.974;2022-11-27T03:52:04;101892.03;;;5.85;100.00
24825;BME280;12910;57.690;11.974;2022-11-27T03:54:59;101886.16;;;5.86;100.00
24825;BME280;12910;57.690;11.974;2022-11-27T04:00:14;101877.56;;;5.84;100.00
24825;BME280;12910;57.690;11.974;2022-11-27T04:02:50;101877.75;;;5.87;100.00
24825;BME280;12910;57.690;11.974;2022-11-27T04:05:17;101870.28;;;5.90;100.00
24825;BME280;12910;57.690;11.974;2022-11-27T04:07:42;101865.81;;;5.86;100.00
24825;BME280;12910;57.690;11.974;2022-11-27T04:10:09;101870.91;;;5.86;100.00
24825;BME280;12910;57.690;11.974;2022-11-27T04:12:34;101873.44;;;5.86;100.00
24825;BME280;12910;57.690;11.974;2022-11-27T04:14:59;101859.84;;;5.86;100.00
24825;BME280;12910;57.690;11.974;2022-11-27T04:17:25;101865.81;;;5.86;100.00
24825;BME280;12910;57.690;11.974;2022-11-27T04:19:51;101864.59;;;5.80;100.00
24825;BME280;12910;57.690;11.974;2022-11-27T04:22:16;101857.91;;;5.82;100.00
24825;BME280;12910;57.690;11.974;2022-11-27T04:24:42;101868.41;;;5.88;100.00
24825;BME280;12910;57.690;11.974;2022-11-27T04:27:07;101866.66;;;5.87;100.00
24825;BME280;12910;57.690;11.974;2022-11-27T04:29:33;101880.22;;;5.86;100.00
24825;BME280;12910;57.690;11.974;2022-11-27T04:32:01;101875.00;;;5.84;100.00
24825;BME280;12910;57.690;11.974;2022-11-27T04:34:26;101881.94;;;5.87;100.00
24825;BME280;12910;57.690;11.974;2022-11-27T04:36:51;101877.56;;;5.84;100.00
24825;BME280;12910;57.690;11.974;2022-11-27T04:39:17;101872.31;;;5.81;100.00
24825;BME280;12910;57.690;11.974;2022-11-27T04:41:42;101885.13;;;5.83;100.00
24825;BME280;12910;57.690;11.974;2022-11-27T04:44:07;101887.13;;;5.88;100.00
24825;BME280;12910;57.690;11.974;2022-11-27T04:46:33;101875.97;;;5.86;100.00
24825;BME280;12910;57.690;11.974;2022-11-27T04:48:58;101870.91;;;5.86;100.00
24825;BME280;12910;57.690;11.974;2022-11-27T04:51:23;101858.63;;;5.79;100.00
24825;BME280;12910;57.690;11.974;2022-11-27T04:53:49;101869.13;;;5.85;100.00
24825;BME280;12910;57.690;11.974;2022-11-27T04:56:14;101865.00;;;5.87;100.00
24825;BME280;12910;57.690;11.974;2022-11-27T04:58:40;101860.53;;;5.83;100.00
24825;BME280;12910;57.690;11.974;2022-11-27T05:01:07;101847.75;;;5.82;100.00
24825;BME280;12910;57.690;11.974;2022-11-27T05:03:33;101843.50;;;5.82;100.00
24825;BME280;12910;57.690;11.974;2022-11-27T05:05:58;101849.69;;;5.86;100.00
24825;BME280;12910;57.690;11.974;2022-11-27T05:08:25;101846.25;;;5.85;100.00
24825;BME280;12910;57.690;11.974;2022-11-27T05:11:07;101841.88;;;5.83;100.00
24825;BME280;12910;57.690;11.974;2022-11-27T05:13:34;101837.63;;;5.83;100.00
24825;BME280;12910;57.690;11.974;2022-11-27T05:16:00;101850.28;;;5.82;100.00
24825;BME280;12910;57.690;11.974;2022-11-27T05:18:26;101842.72;;;5.83;100.00
24825;BME280;12910;57.690;11.974;2022-11-27T05:20:59;101849.75;;;5.87;100.00
24825;BME280;12910;57.690;11.974;2022-11-27T05:23:26;101843.63;;;5.84;100.00
24825;BME280;12910;57.690;11.974;2022-11-27T05:25:52;101841.06;;;5.84;100.00
24825;BME280;12910;57.690;11.974;2022-11-27T05:28:18;101848.59;;;5.82;100.00
24825;BME280;12910;57.690;11.974;2022-11-27T05:30:45;101837.63;;;5.83;100.00
24825;BME280;12910;57.690;11.974;2022-11-27T05:33:10;101833.19;;;5.79;100.00
24825;BME280;12910;57.690;11.974;2022-11-27T05:35:35;101814.59;;;5.80;100.00
24825;BME280;12910;57.690;11.974;2022-11-27T05:38:01;101831.75;;;5.84;100.00
24825;BME280;12910;57.690;11.974;2022-11-27T05:40:26;101832.28;;;5.78;100.00
24825;BME280;12910;57.690;11.974;2022-11-27T05:42:52;101834.59;;;5.74;100.00
24825;BME280;12910;57.690;11.974;2022-11-27T05:45:17;101840.03;;;5.80;100.00
24825;BME280;12910;57.690;11.974;2022-11-27T05:47:42;101837.38;;;5.78;100.00
24825;BME280;12910;57.690;11.974;2022-11-27T05:50:08;101826.00;;;5.72;100.00
24825;BME280;12910;57.690;11.974;2022-11-27T05:52:33;101831.44;;;5.78;100.00
24825;BME280;12910;57.690;11.974;2022-11-27T05:54:59;101828.81;;;5.76;100.00
24825;BME280;12910;57.690;11.974;2022-11-27T05:57:24;101827.13;;;5.77;100.00
24825;BME280;12910;57.690;11.974;2022-11-27T05:59:50;101823.34;;;5.85;100.00
24825;BME280;12910;57.690;11.974;2022-11-27T06:02:15;101802.41;;;5.74;100.00
24825;BME280;12910;57.690;11.974;2022-11-27T06:04:41;101810.38;;;5.81;100.00
24825;BME280;12910;57.690;11.974;2022-11-27T06:07:06;101802.66;;;5.79;100.00
24825;BME280;12910;57.690;11.974;2022-11-27T06:09:32;101803.44;;;5.78;100.00
24825;BME280;12910;57.690;11.974;2022-11-27T06:11:57;101814.59;;;5.80;100.00
24825;BME280;12910;57.690;11.974;2022-11-27T06:14:23;101815.44;;;5.81;100.00
24825;BME280;12910;57.690;11.974;2022-11-27T06:16:48;101823.09;;;5.81;100.00
24825;BME280;12910;57.690;11.974;2022-11-27T06:19:14;101838.44;;;5.82;100.00
24825;BME280;12910;57.690;11.974;2022-11-27T06:21:39;101829.06;;;5.81;100.00
24825;BME280;12910;57.690;11.974;2022-11-27T06:24:05;101819.50;;;5.77;100.00
24825;BME280;12910;57.690;11.974;2022-11-27T06:26:31;101825.69;;;5.82;100.00
24825;BME280;12910;57.690;11.974;2022-11-27T06:28:58;101818.97;;;5.83;100.00
24825;BME280;12910;57.690;11.974;2022-11-27T06:31:29;101830.00;;;5.83;100.00
24825;BME280;12910;57.690;11.974;2022-11-27T06:33:55;101832.47;;;5.82;100.00
24825;BME280;12910;57.690;11.974;2022-11-27T06:36:22;101830.66;;;5.79;100.00
24825;BME280;12910;57.690;11.974;2022-11-27T06:38:48;101820.53;;;5.81;100.00
24825;BME280;12910;57.690;11.974;2022-11-27T06:41:18;101821.44;;;5.81;100.00
24825;BME280;12910;57.690;11.974;2022-11-27T06:43:44;101802.03;;;5.68;100.00
24825;BME280;12910;57.690;11.974;2022-11-27T06:46:12;101817.75;;;5.76;100.00
24825;BME280;12910;57.690;11.974;2022-11-27T06:48:39;101818.63;;;5.76;100.00
24825;BME280;12910;57.690;11.974;2022-11-27T06:51:06;101829.41;;;5.72;100.00
24825;BME280;12910;57.690;11.974;2022-11-27T06:53:34;101825.19;;;5.73;100.00
24825;BME280;12910;57.690;11.974;2022-11-27T06:56:05;101812.22;;;5.68;100.00
24825;BME280;12910;57.690;11.974;2022-11-27T06:58:31;101795.78;;;5.61;100.00
24825;BME280;12910;57.690;11.974;2022-11-27T07:01:03;101817.22;;;5.67;100.00
24825;BME280;12910;57.690;11.974;2022-11-27T07:03:29;101791.47;;;5.60;100.00
24825;BME280;12910;57.690;11.974;2022-11-27T07:05:58;101811.97;;;5.64;100.00
24825;BME280;12910;57.690;11.974;2022-11-27T07:08:23;101811.03;;;5.61;100.00
24825;BME280;12910;57.690;11.974;2022-11-27T07:10:49;101803.41;;;5.61;100.00
24825;BME280;12910;57.690;11.974;2022-11-27T07:13:14;101806.56;;;5.57;100.00
24825;BME280;12910;57.690;11.974;2022-11-27T07:15:39;101809.69;;;5.53;100.00
24825;BME280;12910;57.690;11.974;2022-11-27T07:18:05;101810.06;;;5.59;100.00
24825;BME280;12910;57.690;11.974;2022-11-27T07:20:31;101814.44;;;5.62;100.00
24825;BME280;12910;57.690;11.974;2022-11-27T07:22:56;101801.47;;;5.57;100.00
24825;BME280;12910;57.690;11.974;2022-11-27T07:25:22;101809.28;;;5.60;100.00
24825;BME280;12910;57.690;11.974;2022-11-27T07:27:47;101806.38;;;5.54;100.00
24825;BME280;12910;57.690;11.974;2022-11-27T07:30:13;101819.44;;;5.60;100.00
24825;BME280;12910;57.690;11.974;2022-11-27T07:32:38;101815.03;;;5.58;100.00
24825;BME280;12910;57.690;11.974;2022-11-27T07:35:04;101819.44;;;5.60;100.00
24825;BME280;12910;57.690;11.974;2022-11-27T07:37:30;101814.19;;;5.57;100.00
24825;BME280;12910;57.690;11.974;2022-11-27T07:39:56;101822.78;;;5.59;100.00
24825;BME280;12910;57.690;11.974;2022-11-27T07:42:21;101815.47;;;5.66;100.00
24825;BME280;12910;57.690;11.974;2022-11-27T07:44:47;101820.66;;;5.67;100.00
24825;BME280;12910;57.690;11.974;2022-11-27T07:47:12;101828.19;;;5.66;100.00
24825;BME280;12910;57.690;11.974;2022-11-27T07:49:38;101818.66;;;5.61;100.00
24825;BME280;12910;57.690;11.974;2022-11-27T07:52:03;101820.84;;;5.55;100.00
24825;BME280;12910;57.690;11.974;2022-11-27T07:54:29;101820.94;;;5.57;100.00
24825;BME280;12910;57.690;11.974;2022-11-27T07:56:54;101820.31;;;5.61;100.00
24825;BME280;12910;57.690;11.974;2022-11-27T07:59:19;101818.72;;;5.63;100.00
24825;BME280;12910;57.690;11.974;2022-11-27T08:01:45;101826.00;;;5.72;100.00
24825;BME280;12910;57.690;11.974;2022-11-27T08:04:10;101822.50;;;5.70;100.00
24825;BME280;12910;57.690;11.974;2022-11-27T08:06:36;101814.88;;;5.70;100.00
24825;BME280;12910;57.690;11.974;2022-11-27T08:09:02;101815.84;;;5.72;100.00
24825;BME280;12910;57.690;11.974;2022-11-27T08:11:29;101816.69;;;5.72;100.00
24825;BME280;12910;57.690;11.974;2022-11-27T08:13:58;101822.03;;;5.77;100.00
24825;BME280;12910;57.690;11.974;2022-11-27T08:16:25;101817.75;;;5.76;100.00
24825;BME280;12910;57.690;11.974;2022-11-27T08:18:51;101828.63;;;5.73;100.00
24825;BME280;12910;57.690;11.974;2022-11-27T08:21:17;101809.69;;;5.68;100.00
24825;BME280;12910;57.690;11.974;2022-11-27T08:23:43;101824.75;;;5.80;100.00
24825;BME280;12910;57.690;11.974;2022-11-27T08:26:09;101811.16;;;5.80;100.00
24825;BME280;12910;57.690;11.974;2022-11-27T08:28:35;101822.22;;;5.80;100.00
24825;BME280;12910;57.690;11.974;2022-11-27T08:31:02;101810.28;;;5.79;100.00
24825;BME280;12910;57.690;11.974;2022-11-27T08:33:28;101819.56;;;5.78;100.00
24825;BME280;12910;57.690;11.974;2022-11-27T08:35:54;101812.66;;;5.76;100.00
24825;BME280;12910;57.690;11.974;2022-11-27T08:38:20;101822.22;;;5.80;100.00
24825;BME280;12910;57.690;11.974;2022-11-27T08:40:56;101812.84;;;5.79;100.00
24825;BME280;12910;57.690;11.974;2022-11-27T08:43:22;101814.59;;;5.80;100.00
24825;BME280;12910;57.690;11.974;2022-11-27T08:45:48;101793.88;;;5.74;100.00
24825;BME280;12910;57.690;11.974;2022-11-27T08:48:13;101791.34;;;5.74;100.00
24825;BME280;12910;57.690;11.974;2022-11-27T08:50:39;101794.56;;;5.86;100.00
24825;BME280;12910;57.690;11.974;2022-11-27T08:53:04;101794.38;;;5.83;100.00
24825;BME280;12910;57.690;11.974;2022-11-27T08:55:30;101785.88;;;5.83;100.00
24825;BME280;12910;57.690;11.974;2022-11-27T08:57:55;101775.63;;;5.81;100.00
24825;BME280;12910;57.690;11.974;2022-11-27T09:00:21;101786.13;;;5.87;100.00
24825;BME280;12910;57.690;11.974;2022-11-27T09:02:46;101785.63;;;5.78;100.00
24825;BME280;12910;57.690;11.974;2022-11-27T09:05:12;101772.13;;;5.79;100.00
24825;BME280;12910;57.690;11.974;2022-11-27T09:07:37;101778.97;;;5.80;100.00
24825;BME280;12910;57.690;11.974;2022-11-27T09:10:05;101776.69;;;5.85;100.00
24825;BME280;12910;57.690;11.974;2022-11-27T09:12:31;101767.91;;;5.80;100.00
24825;BME280;12910;57.690;11.974;2022-11-27T09:14:56;101771.41;;;5.82;100.00
24825;BME280;12910;57.690;11.974;2022-11-27T09:17:22;101780.00;;;5.84;100.00
24825;BME280;12910;57.690;11.974;2022-11-27T09:19:47;101770.97;;;5.74;100.00
24825;BME280;12910;57.690;11.974;2022-11-27T09:22:13;101783.88;;;5.77;100.00
24825;BME280;12910;57.690;11.974;2022-11-27T09:24:38;101778.00;;;5.78;100.00
24825;BME280;12910;57.690;11.974;2022-11-27T09:27:03;101771.47;;;5.83;100.00
24825;BME280;12910;57.690;11.974;2022-11-27T09:29:29;101760.75;;;5.89;100.00
24825;BME280;12910;57.690;11.974;2022-11-27T09:31:54;101759.72;;;5.85;100.00
24825;BME280;12910;57.690;11.974;2022-11-27T09:34:20;101767.44;;;5.87;100.00
24825;BME280;12910;57.690;11.974;2022-11-27T09:36:45;101770.09;;;5.88;100.00
24825;BME280;12910;57.690;11.974;2022-11-27T09:39:10;101777.78;;;5.90;100.00
24825;BME280;12910;57.690;11.974;2022-11-27T09:41:50;101764.03;;;5.86;100.00
24825;BME280;12910;57.690;11.974;2022-11-27T09:44:47;101766.75;;;5.89;100.00
24825;BME280;12910;57.690;11.974;2022-11-27T09:50:28;101765.16;;;5.91;100.00
24825;BME280;12910;57.690;11.974;2022-11-27T09:52:57;101754.09;;;5.91;100.00
24825;BME280;12910;57.690;11.974;2022-11-27T09:55:37;101755.78;;;5.90;100.00
24825;BME280;12910;57.690;11.974;2022-11-27T09:58:17;101748.28;;;5.93;100.00
24825;BME280;12910;57.690;11.974;2022-11-27T10:00:45;101737.97;;;5.90;100.00
24825;BME280;12910;57.690;11.974;2022-11-27T10:03:17;101738.75;;;5.89;100.00
24825;BME280;12910;57.690;11.974;2022-11-27T10:14:28;101732.16;;;5.93;100.00
24825;BME280;12910;57.690;11.974;2022-11-27T10:17:17;101730.66;;;5.97;100.00
24825;BME280;12910;57.690;11.974;2022-11-27T10:22:27;101716.81;;;5.91;100.00
24825;BME280;12910;57.690;11.974;2022-11-27T10:25:20;101704.72;;;5.87;100.00
24825;BME280;12910;57.690;11.974;2022-11-27T10:30:19;101706.94;;;5.98;100.00
24825;BME280;12910;57.690;11.974;2022-11-27T10:32:48;101695.56;;;5.91;100.00
24825;BME280;12910;57.690;11.974;2022-11-27T10:35:18;101700.59;;;5.89;100.00
24825;BME280;12910;57.690;11.974;2022-11-27T10:37:45;101712.84;;;5.97;100.00
24825;BME280;12910;57.690;11.974;2022-11-27T10:42:44;101707.75;;;5.97;100.00
24825;BME280;12910;57.690;11.974;2022-11-27T10:47:57;101703.63;;;5.99;100.00
24825;BME280;12910;57.690;11.974;2022-11-27T10:50:23;101711.59;;;6.05;100.00
24825;BME280;12910;57.690;11.974;2022-11-27T10:52:53;101704.75;;;6.04;100.00
24825;BME280;12910;57.690;11.974;2022-11-27T11:01:08;101688.19;;;5.96;100.00
24825;BME280;12910;57.690;11.974;2022-11-27T11:03:34;101702.06;;;6.01;100.00
24825;BME280;12910;57.690;11.974;2022-11-27T11:06:03;101704.84;;;6.05;100.00
24825;BME280;12910;57.690;11.974;2022-11-27T11:08:30;101691.06;;;6.02;100.00
24825;BME280;12910;57.690;11.974;2022-11-27T11:13:22;101696.56;;;6.10;100.00
24825;BME280;12910;57.690;11.974;2022-11-27T11:15:54;101694.91;;;6.10;100.00
24825;BME280;12910;57.690;11.974;2022-11-27T11:18:22;101684.63;;;6.08;100.00
24825;BME280;12910;57.690;11.974;2022-11-27T11:20:57;101673.59;;;6.08;100.00
24825;BME280;12910;57.690;11.974;2022-11-27T11:23:32;101670.31;;;6.11;100.00
24825;BME280;12910;57.690;11.974;2022-11-27T11:28:53;101673.16;;;6.17;100.00
24825;BME280;12910;57.690;11.974;2022-11-27T11:31:27;101664.50;;;6.13;100.00
24825;BME280;12910;57.690;11.974;2022-11-27T11:33:58;101646.38;;;6.07;100.00
24825;BME280;12910;57.690;11.974;2022-11-27T11:36:25;101656.06;;;6.14;100.00
24825;BME280;12910;57.690;11.974;2022-11-27T11:38:51;101652.66;;;6.14;100.00
24825;BME280;12910;57.690;11.974;2022-11-27T11:41:17;101650.97;;;6.14;100.00
24825;BME280;12910;57.690;11.974;2022-11-27T11:46:22;101647.66;;;6.15;100.00
24825;BME280;12910;57.690;11.974;2022-11-27T11:48:57;101646.84;;;6.16;100.00
24825;BME280;12910;57.690;11.974;2022-11-27T11:57:02;101651.03;;;6.16;100.00
24825;BME280;12910;57.690;11.974;2022-11-27T11:59:48;101642.63;;;6.17;100.00
24825;BME280;12910;57.690;11.974;2022-11-27T12:16:11;101639.28;;;6.18;100.00
24825;BME280;12910;57.690;11.974;2022-11-27T12:26:57;101629.25;;;6.21;100.00
24825;BME280;12910;57.690;11.974;2022-11-27T12:35:42;101622.47;;;6.21;100.00
24825;BME280;12910;57.690;11.974;2022-11-27T12:38:22;101611.44;;;6.21;100.00
24825;BME280;12910;57.690;11.974;2022-11-27T12:43:52;101599.44;;;6.18;100.00
24825;BME280;12910;57.690;11.974;2022-11-27T12:46:55;101620.84;;;6.22;100.00
24825;BME280;12910;57.690;11.974;2022-11-27T12:49:50;101617.31;;;6.20;100.00
24825;BME280;12910;57.690;11.974;2022-11-27T12:52:40;101603.63;;;6.18;100.00
24825;BME280;12910;57.690;11.974;2022-11-27T12:55:25;101612.22;;;6.20;100.00
24825;BME280;12910;57.690;11.974;2022-11-27T13:00:23;101612.31;;;6.21;100.00
24825;BME280;12910;57.690;11.974;2022-11-27T13:05:31;101599.34;;;6.17;100.00
24825;BME280;12910;57.690;11.974;2022-11-27T13:08:19;101590.84;;;6.16;100.00
24825;BME280;12910;57.690;11.974;2022-11-27T13:10:53;101598.66;;;6.19;100.00
24825;BME280;12910;57.690;11.974;2022-11-27T13:13:23;101603.00;;;6.22;100.00
24825;BME280;12910;57.690;11.974;2022-11-27T13:16:00;101594.47;;;6.21;100.00
24825;BME280;12910;57.690;11.974;2022-11-27T13:18:36;101601.31;;;6.22;100.00
24825;BME280;12910;57.690;11.974;2022-11-27T13:21:08;101594.56;;;6.23;100.00
24825;BME280;12910;57.690;11.974;2022-11-27T13:23:35;101599.72;;;6.24;100.00
24825;BME280;12910;57.690;11.974;2022-11-27T13:26:13;101583.94;;;6.14;100.00
24825;BME280;12910;57.690;11.974;2022-11-27T13:28:46;101593.00;;;6.25;100.00
24825;BME280;12910;57.690;11.974;2022-11-27T13:31:21;101585.81;;;6.18;100.00
24825;BME280;12910;57.690;11.974;2022-11-27T13:33:48;101582.47;;;6.19;100.00
24825;BME280;12910;57.690;11.974;2022-11-27T13:36:24;101588.75;;;6.26;100.00
24825;BME280;12910;57.690;11.974;2022-11-27T13:39:00;101587.63;;;6.20;100.00
24825;BME280;12910;57.690;11.974;2022-11-27T13:41:45;101590.34;;;6.23;100.00
24825;BME280;12910;57.690;11.974;2022-11-27T13:44:26;101588.47;;;6.19;100.00
24825;BME280;12910;57.690;11.974;2022-11-27T13:46:57;101582.53;;;6.20;100.00
24825;BME280;12910;57.690;11.974;2022-11-27T13:49:29;101586.16;;;6.24;100.00
24825;BME280;12910;57.690;11.974;2022-11-27T13:52:15;101588.69;;;6.24;100.00
24825;BME280;12910;57.690;11.974;2022-11-27T13:54:55;101581.13;;;6.26;100.00
24825;BME280;12910;57.690;11.974;2022-11-27T13:57:21;101587.63;;;6.20;100.00
24825;BME280;12910;57.690;11.974;2022-11-27T14:00:14;101582.53;;;6.20;100.00
24825;BME280;12910;57.690;11.974;2022-11-27T14:02:41;101585.97;;;6.21;100.00
24825;BME280;12910;57.690;11.974;2022-11-27T14:05:08;101583.44;;;6.21;100.00
24825;BME280;12910;57.690;11.974;2022-11-27T14:07:38;101583.50;;;6.22;100.00
24825;BME280;12910;57.690;11.974;2022-11-27T14:12:59;101580.81;;;6.19;100.00
24825;BME280;12910;57.690;11.974;2022-11-27T14:15:28;101578.28;;;6.19;100.00
24825;BME280;12910;57.690;11.974;2022-11-27T14:18:23;101575.56;;;6.16;100.00
24825;BME280;12910;57.690;11.974;2022-11-27T14:20:56;101569.03;;;6.21;100.00
24825;BME280;12910;57.690;11.974;2022-11-27T14:23:34;101562.13;;;6.19;100.00
24825;BME280;12910;57.690;11.974;2022-11-27T14:28:41;101563.81;;;6.18;100.00
24825;BME280;12910;57.690;11.974;2022-11-27T14:33:52;101562.13;;;6.19;100.00
24825;BME280;12910;57.690;11.974;2022-11-27T14:36:29;101550.97;;;6.17;100.00
24825;BME280;12910;57.690;11.974;2022-11-27T14:38:56;101553.63;;;6.18;100.00
24825;BME280;12910;57.690;11.974;2022-11-27T14:41:24;101554.47;;;6.19;100.00
24825;BME280;12910;57.690;11.974;2022-11-27T14:44:18;101548.59;;;6.20;100.00